Relevés horaires Matro (Suisse)


Relevés horaires à Matro - Samedi 03 Janv. 2015
Heure UTC1 Température [°C] Vent [km/h] Hum. [%] Pres.4 [hPa] Visi. [Km] Nébu. [octa] Préc.5 [mm] Cond.
2m. Res. Ros. Dir.2 Vit. Moy. Raf.3
23:00 0.6 -5.8 -3.5 NO 31.5 35.2 61.1 74 850(-0.7/3h) -- -- -- --
22:00 0.8 -4.8 -1.7 NO 24.1 48.2 68.5 83 850(-0.6/3h) -- -- -- --
21:00 1.5 -5 -2.1 NO 35.2 37.0 64.8 77 850(-0.6/3h) -- -- -- --
20:00 1.8 -3.5 -0.7 ONO 24.1 33.3 42.6 83 850(-0.3/3h) -- -- -- --
19:00 1.3 -3.7 -0.7 ONO 20.4 33.3 50.0 86 850(-1.2/3h) -- -- -- --
18:00 1.4 -4.8 -1.2 NO 31.5 44.4 61.1 83 850(-1.5/3h) -- -- -- --
17:00 1.6 -4.3 -1.1 ONO 29.6 44.4 59.3 82 850(-2.1/3h) -- -- -- --
16:00 1.6 -5.2 -0.9 ONO 38.9 44.4 61.1 83 850(-1.6/3h) -- -- -- --
15:00 3.6 0.7 -2.3 O 11.1 16.7 29.6 65 850(-2.0/3h) -- -- -- --
14:00 3.8 1 -8.7 O 11.1 16.7 27.8 39 850(-2.3/3h) -- -- -- --
13:00 4.3 0.9 -11.3 O 14.8 16.7 27.8 31 850(-2.5/3h) -- -- -- --
12:00 4.8 1.5 -14.2 SO 14.8 27.8 42.6 24 850(-2.0/3h) -- -- -- --
11:00 4.1 1.3 -15.2 OSO 11.1 11.1 18.5 23 850(-1.3/3h) -- -- -- --
10:00 3.5 2.1 -19.0 N 5.6 14.8 20.4 17 850(-0.6/3h) -- -- -- --
09:00 3.0 -1 -17.9 N 16.7 27.8 42.6 20 850(0.1/3h) -- -- -- --
08:00 3.7 -0.8 -20.0 NO 22.2 27.8 38.9 16 850(0.2/3h) -- -- -- --
07:00 3.0 -2 -17.7 NNO 24.1 27.8 42.6 20 850(-0.2/3h) -- -- -- --
06:00 3.2 -1.7 -17.0 NNO 24.1 55.6 81.5 21 850(-0.6/3h) -- -- -- --
05:00 3.3 -0.9 -16.1 NNO 18.5 20.4 27.8 22 850(-1.0/3h) -- -- -- --
04:00 3.4 -1 -15.9 NNO 20.4 27.8 35.2 23 850(-0.5/3h) -- -- -- --
03:00 3.7 -1.2 -16.0 NNO 25.9 55.6 81.5 22 850(-0.2/3h) -- -- -- --
02:00 4.3 -1.4 -16.7 NO 37.0 48.2 64.8 20 850(-0.5/3h) -- -- -- --
01:00 4.4 -2.3 -15.7 NO 51.9 55.6 81.5 21 850(-1.1/3h) -- -- -- --
00:00 4.4 -2.4 -15.4 NO 53.7 53.7 68.5 22 850(-1.3/3h) -- -- -- --

1 Coordinated Universal Time. Actuellement il est 14:00 locale et 12:00 UTC.

2 Le vent souffle depuis la direction indiquée vers la direction oposée.

3 Les rafales max. sont disponible 40 min après l'heure du relevé.

4 Pour les stations d'altitude (plus de 600m) le géopotentiel du niveau le plus proche de la pression obligatoire est indiqué.

5 Les stations disposant d'un diffuseur peuvent indiquer "trace". Cela signifie que des précipitations ont touchés le sol mais que la quantité est inférieure à 0.1 mm.

Copyright

Les données affichées sur cette page sont la propriété exclusive de Météo Suisse.

Récapitulatif de la journée
Température [°C] Vent [km/h] Ensoleillement4 [h] Precipitations totale5 [mm] Pression [Hpa]
Min1 Max.2 Moy.3 Max. Min Max.
2.8 4.9 34.3 81.5 6 h 36 min 0 850.0 850.0

1 Température minimale relevée entre 18:00 UTC la veille et 18:00 UTC le jour donné.

2 Température maximale relevée entre 06:00 UTC le jour donné et 06:00 UTC le lendemain.

3 Vent moyen de la journée basé sur les relevés horaires.

4 Ensoleillement en heures relevé entre 06:00 UTC la veille et 06:00 UTC le jour donné.

5 Précipitations totales tombées entre 06:00 UTC la jour donné et 06:00 UTC le lendemain.

Graphiques horaires